Cobden, Canada
Current Conditions -  °F | °C
As of 4:00 PM on Wednesday 26 Nov 2014 (Local Time) from CYWA Reporting Station
Overcast Overcast  
Wind Chill: 28°   Ceiling: 2700
Heat Index: 28°   Visibility: 9mi
Dew Point: 14°   Wind: 3mph
Humidity: 55%   Direction: 20°NNE
Pressure: 30.21"   Gusts: NA
Location:  45.63°N, 76.88°W
Report Text: CYWA 262100Z AUTO 02003KT 360V090 9SM OVC027 M02/M10 A3021 RMKSLP238
Loading
Personal Weather Stations






























Interactive Weather Map New forecast layout! Learn more

10-Day Weather Forecast

Advertisements
Track Severe Weather on mobile